createdAt,value
2023-01-04T00:01:23.654Z,97834.50
2023-01-04T00:03:51.866Z,97836.25
2023-01-04T00:06:20.604Z,97832.63
2023-01-04T00:08:48.461Z,97826.56
2023-01-04T00:11:18.862Z,97819.78
2023-01-04T00:13:49.292Z,97822.38
2023-01-04T00:16:19.120Z,97816.97
2023-01-04T00:18:47.713Z,97814.38
2023-01-04T00:21:17.431Z,97809.13
2023-01-04T00:23:47.189Z,97803.91
2023-01-04T00:26:16.815Z,97804.00
2023-01-04T00:28:51.797Z,97804.03
2023-01-04T00:31:24.612Z,97793.81
2023-01-04T00:33:54.831Z,97792.28
2023-01-04T00:36:23.129Z,97793.09
2023-01-04T00:39:07.189Z,97781.84
2023-01-04T00:41:58.299Z,97778.53
2023-01-04T00:44:26.075Z,97778.44
2023-01-04T00:46:55.416Z,97771.53
2023-01-04T00:49:23.298Z,97764.44
2023-01-04T00:51:51.125Z,97761.72
2023-01-04T00:54:19.714Z,97763.44
2023-01-04T00:56:47.778Z,97764.25
2023-01-04T00:59:17.835Z,97759.03
2023-01-04T01:01:46.880Z,97762.59
2023-01-04T01:04:18.203Z,97774.00
2023-01-04T01:06:46.802Z,97766.13
2023-01-04T01:09:14.888Z,97764.41
2023-01-04T01:11:43.102Z,97769.50
2023-01-04T01:14:17.106Z,97764.03
2023-01-04T01:16:54.872Z,97771.06
2023-01-04T01:19:25.685Z,97767.38
2023-01-04T01:21:53.610Z,97762.94
2023-01-04T01:24:21.872Z,97774.13
2023-01-04T01:26:49.778Z,97776.81
2023-01-04T01:29:17.952Z,97773.16
2023-01-04T01:31:45.931Z,97778.38
2023-01-04T01:34:13.988Z,97774.78
2023-01-04T01:36:43.315Z,97779.06
2023-01-04T01:39:11.143Z,97782.47
2023-01-04T01:41:39.011Z,97785.13
2023-01-04T01:44:28.121Z,97782.25
2023-01-04T01:46:56.438Z,97786.63
2023-01-04T01:49:26.992Z,97781.25
2023-01-04T01:51:58.730Z,97783.84
2023-01-04T01:54:31.247Z,97782.91
2023-01-04T01:57:03.006Z,97784.69
2023-01-04T01:59:33.036Z,97787.16
2023-01-04T02:02:01.053Z,97782.69
2023-01-04T02:04:29.087Z,97774.97
2023-01-04T02:06:59.979Z,97779.25
2023-01-04T02:09:27.888Z,97773.28
2023-01-04T02:11:55.660Z,97767.91
2023-01-04T02:14:30.055Z,97767.97
2023-01-04T02:17:10.182Z,97761.75
2023-01-04T02:19:58.198Z,97753.94
2023-01-04T02:22:53.459Z,97756.69
2023-01-04T02:25:46.598Z,97751.44
2023-01-04T02:28:24.406Z,97752.25
2023-01-04T02:31:24.665Z,97754.97
2023-01-04T02:33:57.902Z,97741.94
2023-01-04T02:36:34.883Z,97737.75
2023-01-04T02:39:12.098Z,97735.88
2023-01-04T02:41:47.524Z,97732.47
2023-01-04T02:44:36.163Z,97729.03
2023-01-04T02:47:08.172Z,97730.03
2023-01-04T02:49:55.631Z,97730.94
2023-01-04T02:52:26.198Z,97721.53
2023-01-04T02:54:56.708Z,97726.81
2023-01-04T02:57:42.415Z,97729.50
2023-01-04T03:00:35.258Z,97721.78
2023-01-04T03:03:42.619Z,97715.88
2023-01-04T03:06:18.502Z,97716.50
2023-01-04T03:09:02.767Z,97704.34
2023-01-04T03:11:57.506Z,97705.13
2023-01-04T03:14:30.912Z,97698.16
2023-01-04T03:17:02.537Z,97700.69
2023-01-04T03:19:50.443Z,97692.00
2023-01-04T03:22:41.666Z,97697.31
2023-01-04T03:25:27.867Z,97694.81
2023-01-04T03:28:27.679Z,97693.16
2023-01-04T03:31:19.517Z,97691.78
2023-01-04T03:34:05.898Z,97693.19
2023-01-04T03:37:06.132Z,97696.56
2023-01-04T03:40:11.732Z,97700.91
2023-01-04T03:43:13.656Z,97701.69
2023-01-04T03:46:03.789Z,97696.28
2023-01-04T03:48:37.033Z,97702.22
2023-01-04T03:51:14.784Z,97693.44
2023-01-04T03:53:58.541Z,97684.53
2023-01-04T03:56:29.648Z,97679.13
2023-01-04T03:58:57.919Z,97679.06
2023-01-04T04:01:28.212Z,97675.47
2023-01-04T04:04:14.719Z,97658.91
2023-01-04T04:07:00.610Z,97668.28
2023-01-04T04:09:30.094Z,97664.81
2023-01-04T04:11:59.368Z,97662.94
2023-01-04T04:14:27.451Z,97660.25
2023-01-04T04:16:55.623Z,97663.66
2023-01-04T04:19:23.543Z,97669.47
2023-01-04T04:21:51.484Z,97669.31
2023-01-04T04:24:21.021Z,97667.53
2023-01-04T04:26:50.387Z,97661.44
2023-01-04T04:29:18.920Z,97665.75
2023-01-04T04:31:46.857Z,97654.31
2023-01-04T04:34:14.919Z,97653.22
2023-01-04T04:36:42.892Z,97654.88
2023-01-04T04:39:11.849Z,97653.88
2023-01-04T04:41:39.319Z,97646.84
2023-01-04T04:44:09.549Z,97649.41
2023-01-04T04:46:37.493Z,97643.94
2023-01-04T04:49:05.894Z,97640.53
2023-01-04T04:51:34.187Z,97648.22
2023-01-04T04:54:02.373Z,97635.06
2023-01-04T04:56:30.236Z,97635.06
2023-01-04T04:58:58.221Z,97638.50
2023-01-04T05:01:27.623Z,97626.13
2023-01-04T05:03:55.943Z,97624.34
2023-01-04T05:06:23.907Z,97621.63
2023-01-04T05:08:52.095Z,97626.84
2023-01-04T05:11:40.711Z,97632.06
2023-01-04T05:14:07.865Z,97628.41
2023-01-04T05:16:37.438Z,97628.38
2023-01-04T05:19:05.396Z,97625.75
2023-01-04T05:21:33.197Z,97622.03
2023-01-04T05:24:01.137Z,97628.00
2023-01-04T05:26:29.038Z,97629.69
2023-01-04T05:28:56.972Z,97624.38
2023-01-04T05:31:24.732Z,97629.50
2023-01-04T05:33:54.036Z,97619.78
2023-01-04T05:36:21.947Z,97626.66
2023-01-04T05:38:49.792Z,97622.16
2023-01-04T05:41:35.347Z,97622.00
2023-01-04T05:44:03.181Z,97628.13
2023-01-04T05:46:31.054Z,97627.22
2023-01-04T05:49:00.421Z,97620.16
2023-01-04T05:51:28.314Z,97623.56
2023-01-04T05:53:56.102Z,97619.13
2023-01-04T05:56:23.995Z,97607.66
2023-01-04T05:58:51.799Z,97597.31
2023-01-04T06:01:19.685Z,97605.81
2023-01-04T06:03:47.699Z,97605.94
2023-01-04T06:06:17.063Z,97604.09
2023-01-04T06:08:44.869Z,97598.78
2023-01-04T06:11:12.860Z,97607.47
2023-01-04T06:13:40.728Z,97596.16
2023-01-04T06:16:09.045Z,97602.06
2023-01-04T06:18:36.854Z,97601.09
2023-01-04T06:21:04.780Z,97589.78
2023-01-04T06:23:34.114Z,97600.09
2023-01-04T06:26:01.981Z,97591.47
2023-01-04T06:28:34.162Z,97591.38
2023-01-04T06:31:05.831Z,97584.47
2023-01-04T06:33:33.847Z,97594.75
2023-01-04T06:36:02.303Z,97592.81
2023-01-04T06:38:30.200Z,97599.00
2023-01-04T06:40:59.424Z,97597.94
2023-01-04T06:43:27.423Z,97596.16
2023-01-04T06:45:55.619Z,97590.88
2023-01-04T06:48:23.548Z,97591.84
2023-01-04T06:50:51.422Z,97595.19
2023-01-04T06:53:19.356Z,97598.53
2023-01-04T06:55:47.262Z,97599.38
2023-01-04T06:58:16.556Z,97602.00
2023-01-04T07:00:44.422Z,97601.16
2023-01-04T07:03:14.389Z,97600.22
2023-01-04T07:05:44.284Z,97596.72
2023-01-04T07:08:13.198Z,97592.44
2023-01-04T07:10:41.610Z,97589.72
2023-01-04T07:13:10.437Z,97594.19
2023-01-04T07:15:40.874Z,97592.34
2023-01-04T07:18:09.761Z,97588.78
2023-01-04T07:20:37.738Z,97590.44
2023-01-04T07:23:06.191Z,97594.81
2023-01-04T07:25:34.076Z,97592.16
2023-01-04T07:28:02.012Z,97592.19
2023-01-04T07:30:30.348Z,97586.91
2023-01-04T07:32:59.661Z,97593.91
2023-01-04T07:35:28.275Z,97598.94
2023-01-04T07:37:59.151Z,97584.28
2023-01-04T07:40:27.644Z,97582.53
2023-01-04T07:42:57.685Z,97576.16
2023-01-04T07:45:26.584Z,97566.81
2023-01-04T07:47:54.564Z,97563.25
2023-01-04T07:50:24.010Z,97563.22
2023-01-04T07:52:51.932Z,97561.34
2023-01-04T07:55:19.826Z,97563.06
2023-01-04T07:57:47.771Z,97555.03
2023-01-04T08:00:16.418Z,97560.41
2023-01-04T08:02:44.422Z,97553.34
2023-01-04T08:05:12.617Z,97555.91
2023-01-04T08:07:41.893Z,97547.19
2023-01-04T08:10:09.997Z,97548.91
2023-01-04T08:12:37.960Z,97551.38
2023-01-04T08:15:06.828Z,97550.41
2023-01-04T08:17:35.129Z,97547.78
2023-01-04T08:20:02.998Z,97553.88
2023-01-04T08:22:30.895Z,97545.91
2023-01-04T08:25:00.322Z,97536.13
2023-01-04T08:27:28.252Z,97536.97
2023-01-04T08:29:56.106Z,97543.00
2023-01-04T08:32:23.939Z,97549.03
2023-01-04T08:34:51.840Z,97540.28
2023-01-04T08:37:19.681Z,97533.19
2023-01-04T08:39:49.754Z,97534.75
2023-01-04T08:42:25.086Z,97532.16
2023-01-04T08:45:01.193Z,97535.59
2023-01-04T08:47:29.974Z,97528.47
2023-01-04T08:49:58.607Z,97527.44
2023-01-04T08:52:26.668Z,97520.38
2023-01-04T08:54:54.964Z,97528.22
2023-01-04T08:57:24.233Z,97515.00
2023-01-04T08:59:52.048Z,97513.28
2023-01-04T09:02:23.047Z,97514.84
2023-01-04T09:04:51.359Z,97517.28
2023-01-04T09:07:19.755Z,97522.47
2023-01-04T09:09:47.745Z,97510.97
2023-01-04T09:12:15.621Z,97514.31
2023-01-04T09:14:44.808Z,97521.06
2023-01-04T09:17:12.697Z,97519.28
2023-01-04T09:19:40.620Z,97521.72
2023-01-04T09:22:08.549Z,97512.84
2023-01-04T09:24:36.785Z,97524.91
2023-01-04T09:27:05.014Z,97520.31
2023-01-04T09:29:32.817Z,97515.78
2023-01-04T09:32:02.234Z,97522.66
2023-01-04T09:34:30.251Z,97519.91
2023-01-04T09:36:58.203Z,97523.31
2023-01-04T09:39:30.393Z,97527.63
2023-01-04T09:42:01.423Z,97531.09
2023-01-04T09:47:35.980Z,97515.09
2023-01-04T09:50:07.630Z,97517.66
2023-01-04T09:52:48.614Z,97523.75
2023-01-04T09:55:37.249Z,97513.94
2023-01-04T09:58:18.455Z,97524.44
2023-01-04T10:00:49.907Z,97514.72
2023-01-04T10:03:25.903Z,97515.66
2023-01-04T10:05:56.134Z,97511.09
2023-01-04T10:08:24.545Z,97513.66
2023-01-04T10:11:05.220Z,97499.63
2023-01-04T10:13:47.267Z,97499.56
2023-01-04T10:16:44.092Z,97502.91
2023-01-04T10:21:08.548Z,97488.84
2023-01-04T10:22:21.002Z,97483.38
2023-01-04T10:24:59.635Z,97480.63
2023-01-04T10:27:42.468Z,97493.59
2023-01-04T10:30:30.694Z,97487.38
2023-01-04T10:33:10.217Z,97483.75
2023-01-04T10:35:40.960Z,97477.50
2023-01-04T10:38:16.815Z,97473.81
2023-01-04T10:40:48.137Z,97472.81
2023-01-04T10:43:25.964Z,97470.81
2023-01-04T10:46:01.200Z,97449.59
2023-01-04T10:48:40.854Z,97433.66
2023-01-04T10:51:14.068Z,97437.81
2023-01-04T10:53:47.519Z,97437.50
2023-01-04T10:56:25.867Z,97428.63
2023-01-04T10:59:04.651Z,97432.81
2023-01-04T11:01:36.963Z,97426.59
2023-01-04T11:04:09.211Z,97433.41
2023-01-04T11:06:43.279Z,97421.13
2023-01-04T11:09:22.961Z,97427.09
2023-01-04T11:11:56.180Z,97424.28
2023-01-04T11:14:25.640Z,97418.97
2023-01-04T11:16:59.095Z,97416.28
2023-01-04T11:19:28.410Z,97410.81
2023-01-04T11:22:01.602Z,97410.63
2023-01-04T11:24:33.759Z,97418.28
2023-01-04T11:27:07.162Z,97414.56
2023-01-04T11:29:42.506Z,97404.81
2023-01-04T11:32:20.577Z,97400.34
2023-01-04T11:34:52.145Z,97394.94
2023-01-04T11:37:34.498Z,97392.22
2023-01-04T11:40:23.974Z,97389.50
2023-01-04T11:42:53.851Z,97394.59
2023-01-04T11:45:25.160Z,97391.06
2023-01-04T11:47:55.117Z,97392.69
2023-01-04T11:50:42.147Z,97395.97
2023-01-04T11:53:30.427Z,97385.31
2023-01-04T11:56:20.898Z,97386.00
2023-01-04T11:59:24.466Z,97385.91
2023-01-04T12:02:11.143Z,97380.50
2023-01-04T12:04:39.209Z,97374.28
2023-01-04T12:07:16.056Z,97368.06
2023-01-04T12:09:45.282Z,97381.84
2023-01-04T12:12:15.957Z,97373.97
2023-01-04T12:14:48.779Z,97383.41
2023-01-04T12:17:22.568Z,97380.78
2023-01-04T12:19:54.500Z,97383.22
2023-01-04T12:22:26.008Z,97390.94
2023-01-04T12:25:00.460Z,97382.91
2023-01-04T12:27:29.133Z,97385.53
2023-01-04T12:30:01.950Z,97371.28
2023-01-04T12:32:47.114Z,97370.19
2023-01-04T12:36:04.093Z,97380.63
2023-01-04T12:39:22.805Z,97373.50
2023-01-04T12:42:31.210Z,97369.78
2023-01-04T12:45:15.009Z,97372.31
2023-01-04T12:48:02.079Z,97365.19
2023-01-04T12:50:32.101Z,97363.25
2023-01-04T12:53:28.923Z,97360.44
2023-01-04T12:55:54.402Z,97355.84
2023-01-04T13:02:17.562Z,97351.28
2023-01-04T13:04:45.683Z,97338.69
2023-01-04T13:07:19.188Z,97331.50
2023-01-04T13:09:54.293Z,97327.72
2023-01-04T13:12:51.872Z,97334.59
2023-01-04T13:15:25.783Z,97322.22
2023-01-04T13:17:54.412Z,97319.41
2023-01-04T13:20:25.741Z,97320.84
2023-01-04T13:22:55.333Z,97309.28
2023-01-04T13:25:25.246Z,97324.06
2023-01-04T13:27:57.648Z,97325.56
2023-01-04T13:30:35.990Z,97332.53
2023-01-04T13:33:28.755Z,97338.66
2023-01-04T13:36:10.481Z,97329.91
2023-01-04T13:38:41.126Z,97320.03
2023-01-04T13:41:21.996Z,97322.59
2023-01-04T13:44:03.680Z,97313.00
2023-01-04T13:46:33.267Z,97318.06
2023-01-04T13:49:03.341Z,97309.25
2023-01-04T13:51:37.824Z,97309.25
2023-01-04T13:54:07.859Z,97304.75
2023-01-04T13:56:36.565Z,97296.00
2023-01-04T13:59:04.591Z,97292.50
2023-01-04T14:01:38.072Z,97292.44
2023-01-04T14:04:08.772Z,97302.97
2023-01-04T14:06:44.187Z,97298.53
2023-01-04T14:09:18.537Z,97289.78
2023-01-04T14:12:06.378Z,97288.94
2023-01-04T14:14:48.603Z,97288.94
2023-01-04T14:17:31.540Z,97282.84
2023-01-04T14:20:00.596Z,97282.72
2023-01-04T14:22:43.208Z,97287.16
2023-01-04T14:25:56.453Z,97278.41
2023-01-04T14:28:32.637Z,97280.22
2023-01-04T14:31:37.575Z,97274.06
2023-01-04T14:34:15.597Z,97266.19
2023-01-04T14:36:44.670Z,97264.50
2023-01-04T14:39:32.756Z,97261.88
2023-01-04T14:42:01.507Z,97269.84
2023-01-04T14:44:31.905Z,97269.84
2023-01-04T14:47:03.969Z,97275.09
2023-01-04T14:49:33.568Z,97264.56
2023-01-04T14:52:03.688Z,97262.91
2023-01-04T14:54:35.066Z,97255.00
2023-01-04T14:57:03.821Z,97262.13
2023-01-04T14:59:32.162Z,97261.09
2023-01-04T15:02:00.493Z,97271.72
2023-01-04T15:04:28.894Z,97280.38
2023-01-04T15:07:00.840Z,97264.69
2023-01-04T15:09:30.125Z,97260.34
2023-01-04T15:11:58.766Z,97259.50
2023-01-04T15:14:27.254Z,97268.16
2023-01-04T15:16:55.119Z,97265.53
2023-01-04T15:19:22.960Z,97260.34
2023-01-04T15:21:50.801Z,97258.47
2023-01-04T15:24:20.013Z,97266.44
2023-01-04T15:26:49.073Z,97259.50
2023-01-04T15:29:17.028Z,97255.16
2023-01-04T15:31:44.844Z,97258.66
2023-01-04T15:34:13.636Z,97253.41
2023-01-04T15:36:41.616Z,97256.88
2023-01-04T15:39:12.638Z,97248.13
2023-01-04T15:41:59.537Z,97245.50
2023-01-04T15:44:27.820Z,97242.75
2023-01-04T15:46:56.087Z,97237.50
2023-01-04T15:49:24.074Z,97241.84
2023-01-04T15:51:51.980Z,97237.34
2023-01-04T15:54:21.697Z,97241.72
2023-01-04T15:56:51.132Z,97244.34
2023-01-04T15:59:19.089Z,97242.69
2023-01-04T16:01:47.404Z,97236.56
2023-01-04T16:04:15.897Z,97232.34
2023-01-04T16:06:43.839Z,97221.81
2023-01-04T16:09:11.857Z,97227.06
2023-01-04T16:12:01.035Z,97207.88
2023-01-04T16:14:30.398Z,97200.00
2023-01-04T16:16:58.329Z,97208.72
2023-01-04T16:19:26.319Z,97198.19
2023-01-04T16:21:54.207Z,97201.78
2023-01-04T16:25:00.452Z,97203.53
2023-01-04T16:27:10.576Z,97220.94
2023-01-04T16:29:39.709Z,97221.81
2023-01-04T16:32:07.855Z,97220.94
2023-01-04T16:34:35.716Z,97226.88
2023-01-04T16:37:03.592Z,97213.81
2023-01-04T16:40:05.370Z,97217.19
2023-01-04T16:42:19.472Z,97212.69
2023-01-04T16:44:48.857Z,97210.91
2023-01-04T16:47:16.742Z,97205.63
2023-01-04T16:49:44.719Z,97196.81
2023-01-04T16:52:14.114Z,97209.78
2023-01-04T16:54:41.958Z,97209.84
2023-01-04T16:57:09.882Z,97204.50
2023-01-04T16:59:37.705Z,97196.63
2023-01-04T17:02:07.063Z,97203.47
2023-01-04T17:04:35.145Z,97214.56
2023-01-04T17:07:03.193Z,97218.09
2023-01-04T17:09:31.041Z,97218.16
2023-01-04T17:15:00.793Z,97216.09
2023-01-04T17:17:37.100Z,97208.09
2023-01-04T17:20:07.188Z,97204.72
2023-01-04T17:22:35.435Z,97196.63
2023-01-04T17:25:03.619Z,97200.84
2023-01-04T17:27:31.507Z,97208.66
2023-01-04T17:29:59.323Z,97199.94
2023-01-04T17:32:27.212Z,97208.59
2023-01-04T17:34:57.603Z,97206.03
2023-01-04T17:37:25.471Z,97198.13
2023-01-04T17:39:54.329Z,97221.91
2023-01-04T17:42:23.021Z,97217.50
2023-01-04T17:44:51.282Z,97215.72
2023-01-04T17:47:19.274Z,97224.47
2023-01-04T17:49:47.164Z,97214.84
2023-01-04T17:52:22.122Z,97200.97
2023-01-04T17:54:54.737Z,97208.88
2023-01-04T17:57:22.563Z,97190.50
2023-01-04T17:59:50.487Z,97193.22
2023-01-04T18:02:18.624Z,97191.44
2023-01-04T18:04:46.560Z,97181.78
2023-01-04T18:07:15.845Z,97186.38
2023-01-04T18:09:43.835Z,97177.63
2023-01-04T18:12:11.766Z,97176.78
2023-01-04T18:14:39.644Z,97168.97
2023-01-04T18:17:07.474Z,97159.47
2023-01-04T18:19:35.418Z,97156.00
2023-01-04T18:22:04.179Z,97159.56
2023-01-04T18:24:36.615Z,97165.78
2023-01-04T18:27:23.313Z,97154.50
2023-01-04T18:29:53.767Z,97161.63
2023-01-04T18:32:21.932Z,97161.63
2023-01-04T18:34:49.965Z,97165.97
2023-01-04T18:37:18.837Z,97166.06
2023-01-04T18:39:48.709Z,97161.84
2023-01-04T18:42:16.986Z,97166.13
2023-01-04T18:44:49.020Z,97173.13
2023-01-04T18:47:19.714Z,97174.03
2023-01-04T18:49:47.923Z,97162.75
2023-01-04T18:52:16.202Z,97170.56
2023-01-04T18:54:45.026Z,97173.00
2023-01-04T18:57:14.916Z,97175.75
2023-01-04T18:59:42.786Z,97184.50
2023-01-04T19:02:17.155Z,97193.16
2023-01-04T19:04:45.287Z,97197.56
2023-01-04T19:07:13.263Z,97187.03
2023-01-04T19:09:42.583Z,97193.16
2023-01-04T19:12:10.688Z,97207.16
2023-01-04T19:14:40.286Z,97197.44
2023-01-04T19:17:08.583Z,97187.69
2023-01-04T19:19:36.997Z,97183.25
2023-01-04T19:22:04.907Z,97175.34
2023-01-04T19:24:32.741Z,97183.25
2023-01-04T19:27:03.247Z,97177.22
2023-01-04T19:29:31.928Z,97179.78
2023-01-04T19:32:01.222Z,97182.50
2023-01-04T19:34:29.300Z,97193.03
2023-01-04T19:36:57.643Z,97190.41
2023-01-04T19:39:25.537Z,97193.22
2023-01-04T19:41:53.420Z,97195.03
2023-01-04T19:44:21.371Z,97197.66
2023-01-04T19:46:49.361Z,97199.59
2023-01-04T19:49:18.533Z,97205.81
2023-01-04T19:51:47.328Z,97199.88
2023-01-04T19:54:18.689Z,97201.66
2023-01-04T19:56:52.458Z,97201.66
2023-01-04T19:59:20.684Z,97206.19
2023-01-04T20:01:48.686Z,97207.13
2023-01-04T20:04:18.013Z,97207.13
2023-01-04T20:06:45.882Z,97214.19
2023-01-04T20:09:13.679Z,97209.97
2023-01-04T20:11:41.497Z,97216.25
2023-01-04T20:14:09.305Z,97218.00
2023-01-04T20:16:37.190Z,97216.34
2023-01-04T20:19:05.049Z,97221.66
2023-01-04T20:21:34.287Z,97215.56
2023-01-04T20:24:02.352Z,97220.00
2023-01-04T20:26:30.219Z,97215.56
2023-01-04T20:28:58.051Z,97211.25
2023-01-04T20:31:25.877Z,97216.41
2023-01-04T20:33:53.787Z,97216.34
2023-01-04T20:36:23.299Z,97213.78
2023-01-04T20:38:52.517Z,97211.97
2023-01-04T20:41:22.439Z,97209.28
2023-01-04T20:43:50.177Z,97204.09
2023-01-04T20:46:20.319Z,97203.16
2023-01-04T20:48:48.584Z,97190.94
2023-01-04T20:51:18.147Z,97190.22
2023-01-04T20:53:46.107Z,97195.28
2023-01-04T20:56:16.924Z,97189.16
2023-01-04T20:58:45.670Z,97198.75
2023-01-04T21:01:14.093Z,97198.75
2023-01-04T21:03:42.167Z,97192.56
2023-01-04T21:06:12.581Z,97201.31
2023-01-04T21:08:42.292Z,97214.25
2023-01-04T21:11:11.687Z,97211.63
2023-01-04T21:13:40.943Z,97210.72
2023-01-04T21:16:09.626Z,97210.59
2023-01-04T21:18:38.366Z,97215.88
2023-01-04T21:21:07.508Z,97214.94
2023-01-04T21:23:36.569Z,97218.41
2023-01-04T21:26:09.194Z,97216.53
2023-01-04T21:28:37.118Z,97208.66
2023-01-04T21:31:12.147Z,97194.53
2023-01-04T21:33:40.191Z,97211.94
2023-01-04T21:36:12.632Z,97210.13
2023-01-04T21:38:40.446Z,97204.88
2023-01-04T21:41:09.771Z,97199.44
2023-01-04T21:43:38.095Z,97195.09
2023-01-04T21:46:07.507Z,97197.66
2023-01-04T21:48:36.815Z,97191.53
2023-01-04T21:51:06.128Z,97194.06
2023-01-04T21:53:36.198Z,97187.13
2023-01-04T21:56:06.790Z,97177.34
2023-01-04T21:58:34.685Z,97170.28
2023-01-04T22:01:03.083Z,97161.44
2023-01-04T22:03:31.292Z,97165.78
2023-01-04T22:06:03.371Z,97167.47
2023-01-04T22:08:31.961Z,97161.28
2023-01-04T22:10:59.789Z,97170.84
2023-01-04T22:13:28.328Z,97170.75
2023-01-04T22:15:56.356Z,97163.63
2023-01-04T22:18:24.222Z,97164.66
2023-01-04T22:20:52.159Z,97168.13
2023-01-04T22:23:21.321Z,97161.91
2023-01-04T22:25:49.264Z,97161.00
2023-01-04T22:28:17.113Z,97152.25
2023-01-04T22:30:44.986Z,97150.34
2023-01-04T22:33:12.881Z,97153.94
2023-01-04T22:35:41.121Z,97145.94
2023-01-04T22:38:09.274Z,97150.34
2023-01-04T22:40:39.499Z,97152.97
2023-01-04T22:43:07.643Z,97152.81
2023-01-04T22:45:35.909Z,97144.91
2023-01-04T22:48:03.818Z,97144.91
2023-01-04T22:50:31.712Z,97136.91
2023-01-04T22:53:20.038Z,97144.78
2023-01-04T22:58:37.621Z,97121.97
2023-01-04T23:01:06.564Z,97119.34
2023-01-04T23:03:35.171Z,97120.25
2023-01-04T23:06:05.873Z,97109.72
2023-01-04T23:08:33.697Z,97100.16
2023-01-04T23:11:07.683Z,97105.28
2023-01-04T23:13:35.941Z,97089.41
2023-01-04T23:16:06.339Z,97096.34
2023-01-04T23:18:34.618Z,97105.22
2023-01-04T23:21:03.143Z,97105.13
2023-01-04T23:23:31.151Z,97104.09
2023-01-04T23:26:03.959Z,97096.06
2023-01-04T23:28:35.990Z,97109.16
2023-01-04T23:31:04.959Z,97118.72
2023-01-04T23:33:36.294Z,97104.63
2023-01-04T23:36:09.511Z,97095.03
2023-01-04T23:38:38.225Z,97090.50
2023-01-04T23:41:06.607Z,97106.31
2023-01-04T23:43:38.424Z,97095.69
2023-01-04T23:46:07.643Z,97091.25
2023-01-04T23:48:35.655Z,97086.84
2023-01-04T23:51:03.463Z,97079.88
2023-01-04T23:53:31.280Z,97079.88
2023-01-04T23:56:02.306Z,97076.41
2023-01-04T23:58:31.442Z,97085.16
